sensor_id;sensor_type;location;lat;lon;timestamp;P1;durP1;ratioP1;P2;durP2;ratioP2
53293;SDS011;39181;53.440;5.644;2023-02-28T00:00:44;5.85;;;0.80;;
53293;SDS011;39181;53.440;5.644;2023-02-28T00:03:09;5.10;;;0.70;;
53293;SDS011;39181;53.440;5.644;2023-02-28T00:05:35;5.10;;;0.60;;
53293;SDS011;39181;53.440;5.644;2023-02-28T00:08:00;3.05;;;0.75;;
53293;SDS011;39181;53.440;5.644;2023-02-28T00:10:27;7.90;;;0.75;;
53293;SDS011;39181;53.440;5.644;2023-02-28T00:12:55;8.10;;;0.85;;
53293;SDS011;39181;53.440;5.644;2023-02-28T00:15:23;5.68;;;0.77;;
53293;SDS011;39181;53.440;5.644;2023-02-28T00:17:49;6.53;;;0.80;;
53293;SDS011;39181;53.440;5.644;2023-02-28T00:20:15;6.18;;;0.98;;
53293;SDS011;39181;53.440;5.644;2023-02-28T00:22:42;2.78;;;0.43;;
53293;SDS011;39181;53.440;5.644;2023-02-28T00:25:09;6.13;;;0.50;;
53293;SDS011;39181;53.440;5.644;2023-02-28T00:27:37;2.97;;;0.52;;
53293;SDS011;39181;53.440;5.644;2023-02-28T00:30:04;2.95;;;0.40;;
53293;SDS011;39181;53.440;5.644;2023-02-28T00:32:31;4.88;;;0.60;;
53293;SDS011;39181;53.440;5.644;2023-02-28T00:34:57;6.63;;;0.90;;
53293;SDS011;39181;53.440;5.644;2023-02-28T00:37:22;4.00;;;0.50;;
53293;SDS011;39181;53.440;5.644;2023-02-28T00:39:48;7.97;;;0.60;;
53293;SDS011;39181;53.440;5.644;2023-02-28T00:42:14;6.13;;;0.50;;
53293;SDS011;39181;53.440;5.644;2023-02-28T00:44:40;3.92;;;0.40;;
53293;SDS011;39181;53.440;5.644;2023-02-28T00:47:05;8.43;;;0.73;;
53293;SDS011;39181;53.440;5.644;2023-02-28T00:49:31;4.13;;;0.63;;
53293;SDS011;39181;53.440;5.644;2023-02-28T00:51:56;6.03;;;1.42;;
53293;SDS011;39181;53.440;5.644;2023-02-28T00:54:23;3.33;;;0.40;;
53293;SDS011;39181;53.440;5.644;2023-02-28T00:56:49;4.22;;;0.43;;
53293;SDS011;39181;53.440;5.644;2023-02-28T00:59:15;3.80;;;0.30;;
53293;SDS011;39181;53.440;5.644;2023-02-28T01:01:42;6.13;;;0.40;;
53293;SDS011;39181;53.440;5.644;2023-02-28T01:04:08;3.55;;;0.50;;
53293;SDS011;39181;53.440;5.644;2023-02-28T01:06:34;3.28;;;0.52;;
53293;SDS011;39181;53.440;5.644;2023-02-28T01:09:00;3.75;;;0.55;;
53293;SDS011;39181;53.440;5.644;2023-02-28T01:11:27;5.43;;;0.43;;
53293;SDS011;39181;53.440;5.644;2023-02-28T01:13:53;11.93;;;1.25;;
53293;SDS011;39181;53.440;5.644;2023-02-28T01:16:18;5.03;;;0.57;;
53293;SDS011;39181;53.440;5.644;2023-02-28T01:18:44;4.38;;;0.70;;
53293;SDS011;39181;53.440;5.644;2023-02-28T01:21:11;6.07;;;0.77;;
53293;SDS011;39181;53.440;5.644;2023-02-28T01:23:39;7.90;;;0.88;;
53293;SDS011;39181;53.440;5.644;2023-02-28T01:26:06;3.28;;;0.60;;
53293;SDS011;39181;53.440;5.644;2023-02-28T01:28:33;4.20;;;0.82;;
53293;SDS011;39181;53.440;5.644;2023-02-28T01:30:58;4.97;;;0.50;;
53293;SDS011;39181;53.440;5.644;2023-02-28T01:33:24;7.93;;;1.08;;
53293;SDS011;39181;53.440;5.644;2023-02-28T01:35:57;7.22;;;0.63;;
53293;SDS011;39181;53.440;5.644;2023-02-28T01:38:23;6.25;;;0.40;;
53293;SDS011;39181;53.440;5.644;2023-02-28T01:40:51;4.07;;;0.75;;
53293;SDS011;39181;53.440;5.644;2023-02-28T01:45:48;4.55;;;0.50;;
53293;SDS011;39181;53.440;5.644;2023-02-28T01:48:13;4.50;;;1.20;;
53293;SDS011;39181;53.440;5.644;2023-02-28T01:50:39;10.27;;;0.98;;
53293;SDS011;39181;53.440;5.644;2023-02-28T01:53:10;5.57;;;0.60;;
53293;SDS011;39181;53.440;5.644;2023-02-28T01:55:40;5.20;;;0.77;;
53293;SDS011;39181;53.440;5.644;2023-02-28T01:58:07;6.82;;;0.55;;
53293;SDS011;39181;53.440;5.644;2023-02-28T02:00:34;3.63;;;0.43;;
53293;SDS011;39181;53.440;5.644;2023-02-28T02:03:03;11.90;;;0.85;;
53293;SDS011;39181;53.440;5.644;2023-02-28T02:05:32;8.33;;;0.60;;
53293;SDS011;39181;53.440;5.644;2023-02-28T02:08:03;5.13;;;0.98;;
53293;SDS011;39181;53.440;5.644;2023-02-28T02:10:33;8.07;;;0.50;;
53293;SDS011;39181;53.440;5.644;2023-02-28T02:13:02;4.82;;;0.50;;
53293;SDS011;39181;53.440;5.644;2023-02-28T02:15:41;6.00;;;0.50;;
53293;SDS011;39181;53.440;5.644;2023-02-28T02:18:26;7.70;;;2.65;;
53293;SDS011;39181;53.440;5.644;2023-02-28T02:24:25;5.65;;;0.43;;
53293;SDS011;39181;53.440;5.644;2023-02-28T02:32:47;3.92;;;0.47;;
53293;SDS011;39181;53.440;5.644;2023-02-28T02:38:20;4.07;;;0.55;;
53293;SDS011;39181;53.440;5.644;2023-02-28T02:41:04;9.88;;;1.48;;
53293;SDS011;39181;53.440;5.644;2023-02-28T02:46:17;2.42;;;0.68;;
53293;SDS011;39181;53.440;5.644;2023-02-28T02:49:08;7.20;;;0.60;;
53293;SDS011;39181;53.440;5.644;2023-02-28T02:51:37;11.05;;;1.05;;
53293;SDS011;39181;53.440;5.644;2023-02-28T02:54:08;4.93;;;0.47;;
53293;SDS011;39181;53.440;5.644;2023-02-28T02:56:43;8.15;;;0.47;;
53293;SDS011;39181;53.440;5.644;2023-02-28T02:59:11;5.38;;;0.47;;
53293;SDS011;39181;53.440;5.644;2023-02-28T03:01:40;3.63;;;0.57;;
53293;SDS011;39181;53.440;5.644;2023-02-28T03:04:11;6.90;;;1.05;;
53293;SDS011;39181;53.440;5.644;2023-02-28T03:06:41;9.32;;;0.93;;
53293;SDS011;39181;53.440;5.644;2023-02-28T03:09:07;4.55;;;0.95;;
53293;SDS011;39181;53.440;5.644;2023-02-28T03:11:32;10.57;;;1.35;;
53293;SDS011;39181;53.440;5.644;2023-02-28T03:19:19;11.18;;;0.70;;
53293;SDS011;39181;53.440;5.644;2023-02-28T03:30:39;8.25;;;1.17;;
53293;SDS011;39181;53.440;5.644;2023-02-28T03:33:54;7.75;;;0.60;;
53293;SDS011;39181;53.440;5.644;2023-02-28T03:36:06;11.02;;;0.73;;
53293;SDS011;39181;53.440;5.644;2023-02-28T03:38:37;13.95;;;1.15;;
53293;SDS011;39181;53.440;5.644;2023-02-28T03:41:12;5.40;;;0.85;;
53293;SDS011;39181;53.440;5.644;2023-02-28T03:43:41;8.38;;;2.13;;
53293;SDS011;39181;53.440;5.644;2023-02-28T03:46:12;4.05;;;0.65;;
53293;SDS011;39181;53.440;5.644;2023-02-28T03:48:45;18.23;;;1.15;;
53293;SDS011;39181;53.440;5.644;2023-02-28T03:51:21;6.10;;;0.70;;
53293;SDS011;39181;53.440;5.644;2023-02-28T03:53:52;6.18;;;0.60;;
53293;SDS011;39181;53.440;5.644;2023-02-28T03:56:26;3.70;;;1.17;;
53293;SDS011;39181;53.440;5.644;2023-02-28T03:59:02;5.65;;;0.47;;
53293;SDS011;39181;53.440;5.644;2023-02-28T04:04:01;8.27;;;0.75;;
53293;SDS011;39181;53.440;5.644;2023-02-28T04:06:27;13.93;;;0.60;;
53293;SDS011;39181;53.440;5.644;2023-02-28T04:08:57;13.57;;;1.10;;
53293;SDS011;39181;53.440;5.644;2023-02-28T04:11:23;10.82;;;0.80;;
53293;SDS011;39181;53.440;5.644;2023-02-28T04:13:52;10.45;;;1.48;;
53293;SDS011;39181;53.440;5.644;2023-02-28T04:16:18;5.05;;;0.60;;
53293;SDS011;39181;53.440;5.644;2023-02-28T04:18:44;8.45;;;0.80;;
53293;SDS011;39181;53.440;5.644;2023-02-28T04:21:09;8.75;;;1.15;;
53293;SDS011;39181;53.440;5.644;2023-02-28T04:23:35;7.47;;;0.68;;
53293;SDS011;39181;53.440;5.644;2023-02-28T04:26:01;7.00;;;0.40;;
53293;SDS011;39181;53.440;5.644;2023-02-28T04:28:27;4.32;;;1.40;;
53293;SDS011;39181;53.440;5.644;2023-02-28T04:30:56;4.22;;;0.60;;
53293;SDS011;39181;53.440;5.644;2023-02-28T04:33:31;5.70;;;0.70;;
53293;SDS011;39181;53.440;5.644;2023-02-28T04:36:00;7.07;;;0.60;;
53293;SDS011;39181;53.440;5.644;2023-02-28T04:38:27;5.60;;;0.82;;
53293;SDS011;39181;53.440;5.644;2023-02-28T04:40:53;3.88;;;0.93;;
53293;SDS011;39181;53.440;5.644;2023-02-28T04:43:22;14.20;;;1.13;;
53293;SDS011;39181;53.440;5.644;2023-02-28T04:45:47;6.78;;;0.60;;
53293;SDS011;39181;53.440;5.644;2023-02-28T04:48:13;7.38;;;0.70;;
53293;SDS011;39181;53.440;5.644;2023-02-28T04:50:39;4.28;;;0.75;;
53293;SDS011;39181;53.440;5.644;2023-02-28T04:53:04;6.40;;;0.80;;
53293;SDS011;39181;53.440;5.644;2023-02-28T04:55:30;8.57;;;0.98;;
53293;SDS011;39181;53.440;5.644;2023-02-28T04:57:55;8.63;;;1.15;;
53293;SDS011;39181;53.440;5.644;2023-02-28T05:00:21;3.75;;;0.80;;
53293;SDS011;39181;53.440;5.644;2023-02-28T05:02:46;8.60;;;0.60;;
53293;SDS011;39181;53.440;5.644;2023-02-28T05:05:12;9.43;;;0.77;;
53293;SDS011;39181;53.440;5.644;2023-02-28T05:07:43;7.20;;;0.73;;
53293;SDS011;39181;53.440;5.644;2023-02-28T05:10:09;10.30;;;1.00;;
53293;SDS011;39181;53.440;5.644;2023-02-28T05:12:35;14.07;;;0.95;;
53293;SDS011;39181;53.440;5.644;2023-02-28T05:15:01;5.28;;;0.75;;
53293;SDS011;39181;53.440;5.644;2023-02-28T05:17:27;6.55;;;1.10;;
53293;SDS011;39181;53.440;5.644;2023-02-28T05:19:53;9.30;;;0.77;;
53293;SDS011;39181;53.440;5.644;2023-02-28T05:22:18;8.00;;;0.75;;
53293;SDS011;39181;53.440;5.644;2023-02-28T05:24:44;8.55;;;1.00;;
53293;SDS011;39181;53.440;5.644;2023-02-28T05:27:10;10.00;;;1.05;;
53293;SDS011;39181;53.440;5.644;2023-02-28T05:29:36;9.70;;;1.30;;
53293;SDS011;39181;53.440;5.644;2023-02-28T05:32:07;9.23;;;1.45;;
53293;SDS011;39181;53.440;5.644;2023-02-28T05:34:35;11.75;;;0.90;;
53293;SDS011;39181;53.440;5.644;2023-02-28T05:37:02;3.53;;;0.50;;
53293;SDS011;39181;53.440;5.644;2023-02-28T05:39:27;5.68;;;0.70;;
53293;SDS011;39181;53.440;5.644;2023-02-28T05:41:53;9.48;;;1.42;;
53293;SDS011;39181;53.440;5.644;2023-02-28T05:44:18;10.20;;;1.30;;
53293;SDS011;39181;53.440;5.644;2023-02-28T05:46:44;9.95;;;0.90;;
53293;SDS011;39181;53.440;5.644;2023-02-28T05:49:09;8.10;;;0.50;;
53293;SDS011;39181;53.440;5.644;2023-02-28T05:51:35;9.30;;;0.63;;
53293;SDS011;39181;53.440;5.644;2023-02-28T05:54:04;9.63;;;1.05;;
53293;SDS011;39181;53.440;5.644;2023-02-28T05:56:31;13.85;;;0.90;;
53293;SDS011;39181;53.440;5.644;2023-02-28T05:58:57;7.00;;;0.68;;
53293;SDS011;39181;53.440;5.644;2023-02-28T06:01:30;15.88;;;1.08;;
53293;SDS011;39181;53.440;5.644;2023-02-28T06:03:56;5.78;;;0.60;;
53293;SDS011;39181;53.440;5.644;2023-02-28T06:06:23;8.13;;;0.93;;
53293;SDS011;39181;53.440;5.644;2023-02-28T06:08:49;5.78;;;0.85;;
53293;SDS011;39181;53.440;5.644;2023-02-28T06:11:15;10.95;;;1.05;;
53293;SDS011;39181;53.440;5.644;2023-02-28T06:13:40;16.08;;;0.98;;
53293;SDS011;39181;53.440;5.644;2023-02-28T06:16:07;7.15;;;1.25;;
53293;SDS011;39181;53.440;5.644;2023-02-28T06:18:35;14.23;;;1.13;;
53293;SDS011;39181;53.440;5.644;2023-02-28T06:21:00;14.57;;;1.58;;
53293;SDS011;39181;53.440;5.644;2023-02-28T06:23:26;13.15;;;1.00;;
53293;SDS011;39181;53.440;5.644;2023-02-28T06:25:52;7.22;;;0.98;;
53293;SDS011;39181;53.440;5.644;2023-02-28T06:28:18;6.82;;;0.98;;
53293;SDS011;39181;53.440;5.644;2023-02-28T06:30:43;9.30;;;1.10;;
53293;SDS011;39181;53.440;5.644;2023-02-28T06:33:09;5.30;;;0.93;;
53293;SDS011;39181;53.440;5.644;2023-02-28T06:35:35;6.90;;;0.80;;
53293;SDS011;39181;53.440;5.644;2023-02-28T06:38:00;7.18;;;1.15;;
53293;SDS011;39181;53.440;5.644;2023-02-28T06:40:26;9.90;;;1.17;;
53293;SDS011;39181;53.440;5.644;2023-02-28T06:42:52;7.22;;;0.77;;
53293;SDS011;39181;53.440;5.644;2023-02-28T06:45:17;8.90;;;0.88;;
53293;SDS011;39181;53.440;5.644;2023-02-28T06:47:43;6.88;;;0.90;;
53293;SDS011;39181;53.440;5.644;2023-02-28T06:50:09;4.53;;;0.68;;
53293;SDS011;39181;53.440;5.644;2023-02-28T06:52:36;10.07;;;1.33;;
53293;SDS011;39181;53.440;5.644;2023-02-28T06:55:03;12.15;;;1.30;;
53293;SDS011;39181;53.440;5.644;2023-02-28T06:57:32;8.70;;;1.25;;
53293;SDS011;39181;53.440;5.644;2023-02-28T07:00:00;9.95;;;1.40;;
53293;SDS011;39181;53.440;5.644;2023-02-28T07:02:28;8.52;;;0.90;;
53293;SDS011;39181;53.440;5.644;2023-02-28T07:04:53;8.23;;;1.02;;
53293;SDS011;39181;53.440;5.644;2023-02-28T07:07:19;6.55;;;1.05;;
53293;SDS011;39181;53.440;5.644;2023-02-28T07:09:45;17.40;;;2.65;;
53293;SDS011;39181;53.440;5.644;2023-02-28T07:12:10;4.47;;;1.10;;
53293;SDS011;39181;53.440;5.644;2023-02-28T07:14:36;12.20;;;0.90;;
53293;SDS011;39181;53.440;5.644;2023-02-28T07:17:02;9.25;;;1.30;;
53293;SDS011;39181;53.440;5.644;2023-02-28T07:19:28;7.85;;;1.33;;
53293;SDS011;39181;53.440;5.644;2023-02-28T07:21:54;10.82;;;1.33;;
53293;SDS011;39181;53.440;5.644;2023-02-28T07:24:20;12.70;;;1.30;;
53293;SDS011;39181;53.440;5.644;2023-02-28T07:26:45;19.85;;;3.13;;
53293;SDS011;39181;53.440;5.644;2023-02-28T07:29:11;14.80;;;1.50;;
53293;SDS011;39181;53.440;5.644;2023-02-28T07:31:37;12.85;;;1.52;;
53293;SDS011;39181;53.440;5.644;2023-02-28T07:34:02;15.18;;;1.88;;
53293;SDS011;39181;53.440;5.644;2023-02-28T07:36:28;14.10;;;1.65;;
53293;SDS011;39181;53.440;5.644;2023-02-28T07:38:53;18.15;;;2.13;;
53293;SDS011;39181;53.440;5.644;2023-02-28T07:41:20;16.25;;;1.70;;
53293;SDS011;39181;53.440;5.644;2023-02-28T07:43:48;10.95;;;1.50;;
53293;SDS011;39181;53.440;5.644;2023-02-28T07:46:14;10.55;;;1.50;;
53293;SDS011;39181;53.440;5.644;2023-02-28T07:48:41;16.73;;;2.90;;
53293;SDS011;39181;53.440;5.644;2023-02-28T07:51:07;9.05;;;2.00;;
53293;SDS011;39181;53.440;5.644;2023-02-28T07:53:32;12.00;;;2.42;;
53293;SDS011;39181;53.440;5.644;2023-02-28T07:55:59;10.80;;;1.98;;
53293;SDS011;39181;53.440;5.644;2023-02-28T07:58:26;17.65;;;3.17;;
53293;SDS011;39181;53.440;5.644;2023-02-28T08:00:53;13.63;;;1.90;;
53293;SDS011;39181;53.440;5.644;2023-02-28T08:03:20;16.80;;;2.78;;
53293;SDS011;39181;53.440;5.644;2023-02-28T08:05:47;6.68;;;3.15;;
53293;SDS011;39181;53.440;5.644;2023-02-28T08:08:13;9.90;;;4.32;;
53293;SDS011;39181;53.440;5.644;2023-02-28T08:10:40;13.15;;;4.15;;
53293;SDS011;39181;53.440;5.644;2023-02-28T08:13:06;8.60;;;4.40;;
53293;SDS011;39181;53.440;5.644;2023-02-28T08:15:31;9.40;;;4.00;;
53293;SDS011;39181;53.440;5.644;2023-02-28T08:17:57;10.07;;;4.30;;
53293;SDS011;39181;53.440;5.644;2023-02-28T08:20:23;7.63;;;3.95;;
53293;SDS011;39181;53.440;5.644;2023-02-28T08:22:49;9.10;;;4.25;;
53293;SDS011;39181;53.440;5.644;2023-02-28T08:25:15;9.55;;;3.67;;
53293;SDS011;39181;53.440;5.644;2023-02-28T08:27:41;6.53;;;3.60;;
53293;SDS011;39181;53.440;5.644;2023-02-28T08:30:06;5.43;;;3.72;;
53293;SDS011;39181;53.440;5.644;2023-02-28T08:32:34;7.68;;;4.03;;
53293;SDS011;39181;53.440;5.644;2023-02-28T08:35:00;6.28;;;4.38;;
53293;SDS011;39181;53.440;5.644;2023-02-28T08:37:26;7.88;;;4.10;;
53293;SDS011;39181;53.440;5.644;2023-02-28T08:39:52;11.10;;;4.72;;
53293;SDS011;39181;53.440;5.644;2023-02-28T08:42:17;9.27;;;4.68;;
53293;SDS011;39181;53.440;5.644;2023-02-28T08:44:43;6.00;;;4.45;;
53293;SDS011;39181;53.440;5.644;2023-02-28T08:47:08;8.30;;;5.22;;
53293;SDS011;39181;53.440;5.644;2023-02-28T08:49:34;8.73;;;5.35;;
53293;SDS011;39181;53.440;5.644;2023-02-28T08:52:00;9.73;;;5.72;;
53293;SDS011;39181;53.440;5.644;2023-02-28T08:54:25;12.00;;;5.93;;
53293;SDS011;39181;53.440;5.644;2023-02-28T08:56:53;9.45;;;5.95;;
53293;SDS011;39181;53.440;5.644;2023-02-28T08:59:19;13.65;;;6.57;;
53293;SDS011;39181;53.440;5.644;2023-02-28T09:01:45;13.43;;;7.13;;
53293;SDS011;39181;53.440;5.644;2023-02-28T09:04:10;7.90;;;6.20;;
53293;SDS011;39181;53.440;5.644;2023-02-28T09:06:36;10.80;;;6.22;;
53293;SDS011;39181;53.440;5.644;2023-02-28T09:09:03;9.88;;;6.18;;
53293;SDS011;39181;53.440;5.644;2023-02-28T09:11:31;9.35;;;6.05;;
53293;SDS011;39181;53.440;5.644;2023-02-28T09:13:57;7.97;;;5.07;;
53293;SDS011;39181;53.440;5.644;2023-02-28T09:16:25;8.90;;;5.80;;
53293;SDS011;39181;53.440;5.644;2023-02-28T09:18:50;8.60;;;5.70;;
53293;SDS011;39181;53.440;5.644;2023-02-28T09:21:17;9.70;;;5.45;;
53293;SDS011;39181;53.440;5.644;2023-02-28T09:23:44;9.38;;;5.30;;
53293;SDS011;39181;53.440;5.644;2023-02-28T09:26:21;9.48;;;5.47;;
53293;SDS011;39181;53.440;5.644;2023-02-28T09:28:51;7.95;;;5.53;;
53293;SDS011;39181;53.440;5.644;2023-02-28T09:31:18;10.27;;;5.13;;
53293;SDS011;39181;53.440;5.644;2023-02-28T09:33:47;6.75;;;5.10;;
53293;SDS011;39181;53.440;5.644;2023-02-28T09:36:14;9.77;;;4.95;;
53293;SDS011;39181;53.440;5.644;2023-02-28T09:38:39;6.18;;;5.00;;
53293;SDS011;39181;53.440;5.644;2023-02-28T09:41:15;8.13;;;4.68;;
53293;SDS011;39181;53.440;5.644;2023-02-28T09:43:46;7.70;;;5.18;;
53293;SDS011;39181;53.440;5.644;2023-02-28T09:46:23;11.18;;;5.60;;
53293;SDS011;39181;53.440;5.644;2023-02-28T09:48:52;7.35;;;5.15;;
53293;SDS011;39181;53.440;5.644;2023-02-28T09:51:30;5.55;;;4.18;;
53293;SDS011;39181;53.440;5.644;2023-02-28T09:54:02;5.63;;;4.78;;
53293;SDS011;39181;53.440;5.644;2023-02-28T09:56:39;7.18;;;5.38;;
53293;SDS011;39181;53.440;5.644;2023-02-28T10:04:32;5.78;;;4.78;;
53293;SDS011;39181;53.440;5.644;2023-02-28T10:10:29;7.32;;;4.50;;
53293;SDS011;39181;53.440;5.644;2023-02-28T10:13:02;7.43;;;4.20;;
53293;SDS011;39181;53.440;5.644;2023-02-28T10:15:30;5.70;;;4.25;;
53293;SDS011;39181;53.440;5.644;2023-02-28T10:17:58;4.68;;;3.85;;
53293;SDS011;39181;53.440;5.644;2023-02-28T10:20:28;6.18;;;4.93;;
53293;SDS011;39181;53.440;5.644;2023-02-28T10:23:03;10.25;;;4.10;;
53293;SDS011;39181;53.440;5.644;2023-02-28T10:25:40;4.47;;;3.55;;
53293;SDS011;39181;53.440;5.644;2023-02-28T10:30:41;4.85;;;4.10;;
53293;SDS011;39181;53.440;5.644;2023-02-28T10:33:14;6.60;;;4.68;;
53293;SDS011;39181;53.440;5.644;2023-02-28T10:35:45;6.53;;;4.65;;
53293;SDS011;39181;53.440;5.644;2023-02-28T10:38:20;5.57;;;4.80;;
53293;SDS011;39181;53.440;5.644;2023-02-28T10:41:08;7.22;;;5.00;;
53293;SDS011;39181;53.440;5.644;2023-02-28T10:43:36;6.43;;;4.72;;
53293;SDS011;39181;53.440;5.644;2023-02-28T10:46:04;9.32;;;4.75;;
53293;SDS011;39181;53.440;5.644;2023-02-28T10:48:37;6.85;;;4.63;;
53293;SDS011;39181;53.440;5.644;2023-02-28T10:51:05;6.32;;;4.40;;
53293;SDS011;39181;53.440;5.644;2023-02-28T10:53:34;7.70;;;5.05;;
53293;SDS011;39181;53.440;5.644;2023-02-28T11:01:20;8.73;;;5.00;;
53293;SDS011;39181;53.440;5.644;2023-02-28T11:03:46;6.65;;;5.40;;
53293;SDS011;39181;53.440;5.644;2023-02-28T11:06:14;10.00;;;6.90;;
53293;SDS011;39181;53.440;5.644;2023-02-28T11:08:55;7.20;;;5.45;;
53293;SDS011;39181;53.440;5.644;2023-02-28T11:11:30;7.50;;;5.35;;
53293;SDS011;39181;53.440;5.644;2023-02-28T11:14:07;7.60;;;5.10;;
53293;SDS011;39181;53.440;5.644;2023-02-28T11:16:51;8.73;;;5.43;;
53293;SDS011;39181;53.440;5.644;2023-02-28T11:19:22;6.32;;;4.95;;
53293;SDS011;39181;53.440;5.644;2023-02-28T11:21:58;6.65;;;4.88;;
53293;SDS011;39181;53.440;5.644;2023-02-28T11:24:31;6.93;;;5.03;;
53293;SDS011;39181;53.440;5.644;2023-02-28T11:27:01;6.07;;;4.20;;
53293;SDS011;39181;53.440;5.644;2023-02-28T11:29:31;5.63;;;4.13;;
53293;SDS011;39181;53.440;5.644;2023-02-28T11:32:18;6.05;;;4.53;;
53293;SDS011;39181;53.440;5.644;2023-02-28T11:34:46;7.30;;;4.47;;
53293;SDS011;39181;53.440;5.644;2023-02-28T11:37:24;5.25;;;3.80;;
53293;SDS011;39181;53.440;5.644;2023-02-28T11:39:53;6.22;;;4.10;;
53293;SDS011;39181;53.440;5.644;2023-02-28T11:44:58;5.78;;;3.85;;
53293;SDS011;39181;53.440;5.644;2023-02-28T11:50:26;4.15;;;3.50;;
53293;SDS011;39181;53.440;5.644;2023-02-28T11:55:28;5.25;;;4.25;;
53293;SDS011;39181;53.440;5.644;2023-02-28T11:58:13;5.35;;;4.25;;
53293;SDS011;39181;53.440;5.644;2023-02-28T12:00:57;6.50;;;4.40;;
53293;SDS011;39181;53.440;5.644;2023-02-28T12:06:20;5.60;;;4.60;;
53293;SDS011;39181;53.440;5.644;2023-02-28T12:19:20;5.55;;;4.35;;
53293;SDS011;39181;53.440;5.644;2023-02-28T12:27:11;5.72;;;4.20;;
53293;SDS011;39181;53.440;5.644;2023-02-28T12:29:46;5.22;;;4.03;;
53293;SDS011;39181;53.440;5.644;2023-02-28T12:32:32;4.75;;;4.20;;
53293;SDS011;39181;53.440;5.644;2023-02-28T12:35:10;5.38;;;4.00;;
53293;SDS011;39181;53.440;5.644;2023-02-28T12:37:54;4.57;;;3.85;;
53293;SDS011;39181;53.440;5.644;2023-02-28T12:40:25;7.18;;;4.50;;
53293;SDS011;39181;53.440;5.644;2023-02-28T12:42:59;4.65;;;3.83;;
53293;SDS011;39181;53.440;5.644;2023-02-28T12:45:38;5.45;;;3.25;;
53293;SDS011;39181;53.440;5.644;2023-02-28T12:48:06;6.70;;;4.03;;
53293;SDS011;39181;53.440;5.644;2023-02-28T12:50:35;3.80;;;3.10;;
53293;SDS011;39181;53.440;5.644;2023-02-28T12:53:03;5.65;;;3.92;;
53293;SDS011;39181;53.440;5.644;2023-02-28T13:00:48;4.07;;;3.58;;
53293;SDS011;39181;53.440;5.644;2023-02-28T13:06:41;5.45;;;3.95;;
53293;SDS011;39181;53.440;5.644;2023-02-28T13:09:22;5.03;;;3.60;;
53293;SDS011;39181;53.440;5.644;2023-02-28T13:11:49;4.75;;;3.90;;
53293;SDS011;39181;53.440;5.644;2023-02-28T13:14:29;5.05;;;3.38;;
53293;SDS011;39181;53.440;5.644;2023-02-28T13:17:10;6.25;;;4.13;;
53293;SDS011;39181;53.440;5.644;2023-02-28T13:19:37;7.00;;;3.67;;
53293;SDS011;39181;53.440;5.644;2023-02-28T13:22:18;10.27;;;3.97;;
53293;SDS011;39181;53.440;5.644;2023-02-28T13:24:50;5.38;;;3.63;;
53293;SDS011;39181;53.440;5.644;2023-02-28T13:27:20;6.15;;;4.00;;
53293;SDS011;39181;53.440;5.644;2023-02-28T13:29:57;6.05;;;4.15;;
53293;SDS011;39181;53.440;5.644;2023-02-28T13:42:32;6.43;;;4.93;;
53293;SDS011;39181;53.440;5.644;2023-02-28T13:47:28;6.45;;;4.53;;
53293;SDS011;39181;53.440;5.644;2023-02-28T13:50:15;7.38;;;4.85;;
53293;SDS011;39181;53.440;5.644;2023-02-28T13:53:12;8.13;;;4.88;;
53293;SDS011;39181;53.440;5.644;2023-02-28T13:58:53;6.97;;;4.30;;
53293;SDS011;39181;53.440;5.644;2023-02-28T14:06:53;4.85;;;4.18;;
53293;SDS011;39181;53.440;5.644;2023-02-28T14:11:53;5.78;;;4.18;;
53293;SDS011;39181;53.440;5.644;2023-02-28T14:15:02;6.22;;;4.00;;
53293;SDS011;39181;53.440;5.644;2023-02-28T14:17:12;5.05;;;4.07;;
53293;SDS011;39181;53.440;5.644;2023-02-28T14:19:40;4.28;;;3.58;;
53293;SDS011;39181;53.440;5.644;2023-02-28T14:27:45;5.05;;;3.85;;
53293;SDS011;39181;53.440;5.644;2023-02-28T14:33:22;4.65;;;3.90;;
53293;SDS011;39181;53.440;5.644;2023-02-28T14:36:11;5.88;;;3.42;;
53293;SDS011;39181;53.440;5.644;2023-02-28T14:38:47;4.85;;;3.58;;
53293;SDS011;39181;53.440;5.644;2023-02-28T14:41:29;8.50;;;4.57;;
53293;SDS011;39181;53.440;5.644;2023-02-28T14:46:39;5.50;;;3.63;;
53293;SDS011;39181;53.440;5.644;2023-02-28T14:49:07;7.07;;;4.13;;
53293;SDS011;39181;53.440;5.644;2023-02-28T14:51:41;6.35;;;3.83;;
53293;SDS011;39181;53.440;5.644;2023-02-28T14:54:12;5.68;;;3.90;;
53293;SDS011;39181;53.440;5.644;2023-02-28T14:56:40;6.47;;;3.95;;
53293;SDS011;39181;53.440;5.644;2023-02-28T14:59:21;6.75;;;4.07;;
53293;SDS011;39181;53.440;5.644;2023-02-28T15:02:16;6.40;;;4.45;;
53293;SDS011;39181;53.440;5.644;2023-02-28T15:04:52;5.70;;;4.22;;
53293;SDS011;39181;53.440;5.644;2023-02-28T15:07:22;8.65;;;3.65;;
53293;SDS011;39181;53.440;5.644;2023-02-28T15:10:09;6.43;;;4.20;;
53293;SDS011;39181;53.440;5.644;2023-02-28T15:15:15;4.55;;;3.72;;
53293;SDS011;39181;53.440;5.644;2023-02-28T15:17:46;8.43;;;4.55;;
53293;SDS011;39181;53.440;5.644;2023-02-28T15:20:21;8.15;;;5.10;;
53293;SDS011;39181;53.440;5.644;2023-02-28T15:22:48;8.10;;;4.65;;
53293;SDS011;39181;53.440;5.644;2023-02-28T15:25:17;7.30;;;4.35;;
53293;SDS011;39181;53.440;5.644;2023-02-28T15:27:46;7.90;;;4.63;;
53293;SDS011;39181;53.440;5.644;2023-02-28T15:30:25;9.20;;;4.78;;
53293;SDS011;39181;53.440;5.644;2023-02-28T15:36:03;6.47;;;4.57;;
53293;SDS011;39181;53.440;5.644;2023-02-28T15:38:39;6.22;;;4.55;;
53293;SDS011;39181;53.440;5.644;2023-02-28T15:41:20;10.20;;;4.53;;
53293;SDS011;39181;53.440;5.644;2023-02-28T15:46:43;11.07;;;4.85;;
53293;SDS011;39181;53.440;5.644;2023-02-28T15:49:20;7.57;;;4.68;;
53293;SDS011;39181;53.440;5.644;2023-02-28T15:51:48;5.25;;;4.22;;
53293;SDS011;39181;53.440;5.644;2023-02-28T15:54:19;6.63;;;4.30;;
53293;SDS011;39181;53.440;5.644;2023-02-28T15:56:53;6.55;;;5.22;;
53293;SDS011;39181;53.440;5.644;2023-02-28T15:59:21;6.63;;;5.03;;
53293;SDS011;39181;53.440;5.644;2023-02-28T16:02:02;7.75;;;4.82;;
53293;SDS011;39181;53.440;5.644;2023-02-28T16:04:34;7.10;;;4.78;;
53293;SDS011;39181;53.440;5.644;2023-02-28T16:07:01;8.25;;;5.28;;
53293;SDS011;39181;53.440;5.644;2023-02-28T16:09:29;6.85;;;4.45;;
53293;SDS011;39181;53.440;5.644;2023-02-28T16:11:56;7.18;;;5.05;;
53293;SDS011;39181;53.440;5.644;2023-02-28T16:14:26;7.70;;;5.10;;
53293;SDS011;39181;53.440;5.644;2023-02-28T16:16:55;9.95;;;5.38;;
53293;SDS011;39181;53.440;5.644;2023-02-28T16:21:53;10.23;;;5.18;;
53293;SDS011;39181;53.440;5.644;2023-02-28T16:24:18;7.47;;;5.38;;
53293;SDS011;39181;53.440;5.644;2023-02-28T16:26:45;9.68;;;5.72;;
53293;SDS011;39181;53.440;5.644;2023-02-28T16:29:18;9.98;;;5.75;;
53293;SDS011;39181;53.440;5.644;2023-02-28T16:31:56;9.48;;;5.45;;
53293;SDS011;39181;53.440;5.644;2023-02-28T16:34:23;7.65;;;5.40;;
53293;SDS011;39181;53.440;5.644;2023-02-28T16:36:49;7.00;;;4.88;;
53293;SDS011;39181;53.440;5.644;2023-02-28T16:39:16;9.27;;;5.00;;
53293;SDS011;39181;53.440;5.644;2023-02-28T16:41:42;8.65;;;5.32;;
53293;SDS011;39181;53.440;5.644;2023-02-28T16:44:11;7.18;;;5.00;;
53293;SDS011;39181;53.440;5.644;2023-02-28T16:46:51;10.07;;;5.88;;
53293;SDS011;39181;53.440;5.644;2023-02-28T16:49:16;8.73;;;6.00;;
53293;SDS011;39181;53.440;5.644;2023-02-28T16:51:42;8.23;;;5.57;;
53293;SDS011;39181;53.440;5.644;2023-02-28T16:54:08;8.00;;;5.38;;
53293;SDS011;39181;53.440;5.644;2023-02-28T16:56:33;7.10;;;5.30;;
53293;SDS011;39181;53.440;5.644;2023-02-28T16:59:00;9.07;;;5.75;;
53293;SDS011;39181;53.440;5.644;2023-02-28T17:01:27;12.68;;;5.53;;
53293;SDS011;39181;53.440;5.644;2023-02-28T17:03:53;8.38;;;5.55;;
53293;SDS011;39181;53.440;5.644;2023-02-28T17:06:21;8.73;;;5.65;;
53293;SDS011;39181;53.440;5.644;2023-02-28T17:08:49;7.78;;;5.93;;
53293;SDS011;39181;53.440;5.644;2023-02-28T17:11:15;13.05;;;5.50;;